Rheiderland, Minnesota
Current Conditions -  °F | °C
As of 12:36 PM on Sunday 25 Jan 2015 (Local Time) from KXVG Reporting Station
Overcast Overcast  
Wind Chill: 21°   Ceiling: 2400
Heat Index: 27°   Visibility: 10mi
Dew Point: 14°   Wind: 5mph
Humidity: 59%   Direction: 150°SSE
Pressure: 30.02"   Gusts: NA
Location:  46.8459°N, 93.8976°W
Report Text: KXVG 251836Z AUTO 15004KT 10SM OVC024 M03/M10 A3002 RMK AO2
Loading
Personal Weather Stations






























Interactive Weather Map New forecast layout! Learn more

10-Day Weather Forecast

Advertisements
Track Severe Weather on mobile